sensor_id;sensor_type;location;lat;lon;timestamp;temperature;humidity
64468;DHT22;50853;46.836;16.820;2024-03-02T00:00:51;10.70;91.90
64468;DHT22;50853;46.836;16.820;2024-03-02T00:03:18;10.70;92.00
64468;DHT22;50853;46.836;16.820;2024-03-02T00:05:48;10.70;91.90
64468;DHT22;50853;46.836;16.820;2024-03-02T00:08:22;10.70;91.90
64468;DHT22;50853;46.836;16.820;2024-03-02T00:10:48;10.70;91.90
64468;DHT22;50853;46.836;16.820;2024-03-02T00:13:14;10.70;91.90
64468;DHT22;50853;46.836;16.820;2024-03-02T00:15:54;10.70;91.90
64468;DHT22;50853;46.836;16.820;2024-03-02T00:20:54;10.70;91.90
64468;DHT22;50853;46.836;16.820;2024-03-02T00:23:21;10.70;91.90
64468;DHT22;50853;46.836;16.820;2024-03-02T00:25:51;10.70;91.90
64468;DHT22;50853;46.836;16.820;2024-03-02T00:28:33;10.70;91.90
64468;DHT22;50853;46.836;16.820;2024-03-02T00:31:04;10.70;91.90
64468;DHT22;50853;46.836;16.820;2024-03-02T00:33:36;10.70;91.90
64468;DHT22;50853;46.836;16.820;2024-03-02T00:36:04;10.70;91.80
64468;DHT22;50853;46.836;16.820;2024-03-02T00:38:31;10.70;91.90
64468;DHT22;50853;46.836;16.820;2024-03-02T00:41:32;10.70;92.00
64468;DHT22;50853;46.836;16.820;2024-03-02T00:44:09;10.70;91.80
64468;DHT22;50853;46.836;16.820;2024-03-02T00:46:41;10.70;91.80
64468;DHT22;50853;46.836;16.820;2024-03-02T00:49:24;10.70;91.80
64468;DHT22;50853;46.836;16.820;2024-03-02T00:51:52;10.70;91.80
64468;DHT22;50853;46.836;16.820;2024-03-02T00:54:23;10.60;91.80
64468;DHT22;50853;46.836;16.820;2024-03-02T00:56:53;10.70;91.80
64468;DHT22;50853;46.836;16.820;2024-03-02T00:59:22;10.70;91.80
64468;DHT22;50853;46.836;16.820;2024-03-02T01:01:49;10.70;91.80
64468;DHT22;50853;46.836;16.820;2024-03-02T01:04:15;10.70;91.70
64468;DHT22;50853;46.836;16.820;2024-03-02T01:06:43;10.60;91.60
64468;DHT22;50853;46.836;16.820;2024-03-02T01:09:09;10.70;91.60
64468;DHT22;50853;46.836;16.820;2024-03-02T01:11:35;10.70;91.60
64468;DHT22;50853;46.836;16.820;2024-03-02T01:14:00;10.70;91.60
64468;DHT22;50853;46.836;16.820;2024-03-02T01:16:26;10.70;91.70
64468;DHT22;50853;46.836;16.820;2024-03-02T01:18:52;10.60;91.60
64468;DHT22;50853;46.836;16.820;2024-03-02T01:21:18;10.60;91.50
64468;DHT22;50853;46.836;16.820;2024-03-02T01:23:44;10.70;91.60
64468;DHT22;50853;46.836;16.820;2024-03-02T01:26:10;10.70;91.60
64468;DHT22;50853;46.836;16.820;2024-03-02T01:28:35;10.70;91.60
64468;DHT22;50853;46.836;16.820;2024-03-02T01:31:01;10.70;91.60
64468;DHT22;50853;46.836;16.820;2024-03-02T01:33:30;10.70;91.60
64468;DHT22;50853;46.836;16.820;2024-03-02T01:35:55;10.60;91.60
64468;DHT22;50853;46.836;16.820;2024-03-02T01:38:21;10.60;91.60
64468;DHT22;50853;46.836;16.820;2024-03-02T01:40:47;10.60;91.50
64468;DHT22;50853;46.836;16.820;2024-03-02T01:43:13;10.60;91.50
64468;DHT22;50853;46.836;16.820;2024-03-02T01:45:39;10.60;91.50
64468;DHT22;50853;46.836;16.820;2024-03-02T01:48:06;10.60;91.50
64468;DHT22;50853;46.836;16.820;2024-03-02T01:50:33;10.60;91.50
64468;DHT22;50853;46.836;16.820;2024-03-02T01:53:00;10.60;91.50
64468;DHT22;50853;46.836;16.820;2024-03-02T01:55:26;10.60;91.60
64468;DHT22;50853;46.836;16.820;2024-03-02T01:57:54;10.60;91.60
64468;DHT22;50853;46.836;16.820;2024-03-02T02:00:21;10.60;91.60
64468;DHT22;50853;46.836;16.820;2024-03-02T02:02:50;10.60;91.60
64468;DHT22;50853;46.836;16.820;2024-03-02T02:05:16;10.60;91.60
64468;DHT22;50853;46.836;16.820;2024-03-02T02:07:42;10.60;91.60
64468;DHT22;50853;46.836;16.820;2024-03-02T02:10:11;10.60;91.60
64468;DHT22;50853;46.836;16.820;2024-03-02T02:12:37;10.60;91.50
64468;DHT22;50853;46.836;16.820;2024-03-02T02:15:04;10.60;91.60
64468;DHT22;50853;46.836;16.820;2024-03-02T02:17:46;10.60;91.50
64468;DHT22;50853;46.836;16.820;2024-03-02T02:20:12;10.60;91.50
64468;DHT22;50853;46.836;16.820;2024-03-02T02:22:38;10.60;91.50
64468;DHT22;50853;46.836;16.820;2024-03-02T02:25:04;10.60;91.60
64468;DHT22;50853;46.836;16.820;2024-03-02T02:27:30;10.60;91.50
64468;DHT22;50853;46.836;16.820;2024-03-02T02:29:56;10.60;91.50
64468;DHT22;50853;46.836;16.820;2024-03-02T02:32:22;10.60;91.50
64468;DHT22;50853;46.836;16.820;2024-03-02T02:34:52;10.60;91.60
64468;DHT22;50853;46.836;16.820;2024-03-02T02:37:18;10.60;91.50
64468;DHT22;50853;46.836;16.820;2024-03-02T02:39:44;10.60;91.60
64468;DHT22;50853;46.836;16.820;2024-03-02T02:42:12;10.60;91.60
64468;DHT22;50853;46.836;16.820;2024-03-02T02:44:38;10.60;91.50
64468;DHT22;50853;46.836;16.820;2024-03-02T02:47:03;10.60;91.50
64468;DHT22;50853;46.836;16.820;2024-03-02T02:49:31;10.60;91.50
64468;DHT22;50853;46.836;16.820;2024-03-02T02:51:57;10.60;91.50
64468;DHT22;50853;46.836;16.820;2024-03-02T02:54:22;10.50;91.50
64468;DHT22;50853;46.836;16.820;2024-03-02T02:56:48;10.60;91.60
64468;DHT22;50853;46.836;16.820;2024-03-02T02:59:14;10.60;91.50
64468;DHT22;50853;46.836;16.820;2024-03-02T03:01:40;10.60;91.50
64468;DHT22;50853;46.836;16.820;2024-03-02T03:04:05;10.50;91.50
64468;DHT22;50853;46.836;16.820;2024-03-02T03:06:31;10.60;91.50
64468;DHT22;50853;46.836;16.820;2024-03-02T03:08:57;10.60;91.50
64468;DHT22;50853;46.836;16.820;2024-03-02T03:11:23;10.60;91.50
64468;DHT22;50853;46.836;16.820;2024-03-02T03:13:50;10.60;91.50
64468;DHT22;50853;46.836;16.820;2024-03-02T03:16:16;10.60;91.60
64468;DHT22;50853;46.836;16.820;2024-03-02T03:18:42;10.60;91.50
64468;DHT22;50853;46.836;16.820;2024-03-02T03:21:07;10.60;91.60
64468;DHT22;50853;46.836;16.820;2024-03-02T03:23:33;10.50;91.50
64468;DHT22;50853;46.836;16.820;2024-03-02T03:25:59;10.60;91.50
64468;DHT22;50853;46.836;16.820;2024-03-02T03:28:25;10.60;91.50
64468;DHT22;50853;46.836;16.820;2024-03-02T03:30:50;10.60;91.50
64468;DHT22;50853;46.836;16.820;2024-03-02T03:33:16;10.50;91.50
64468;DHT22;50853;46.836;16.820;2024-03-02T03:35:42;10.50;91.50
64468;DHT22;50853;46.836;16.820;2024-03-02T03:38:08;10.50;91.50
64468;DHT22;50853;46.836;16.820;2024-03-02T03:40:34;10.60;91.60
64468;DHT22;50853;46.836;16.820;2024-03-02T03:43:00;10.60;91.50
64468;DHT22;50853;46.836;16.820;2024-03-02T03:45:26;10.50;91.50
64468;DHT22;50853;46.836;16.820;2024-03-02T03:47:53;10.50;91.50
64468;DHT22;50853;46.836;16.820;2024-03-02T03:50:19;10.50;91.60
64468;DHT22;50853;46.836;16.820;2024-03-02T03:52:45;10.50;91.50
64468;DHT22;50853;46.836;16.820;2024-03-02T03:55:11;10.50;91.50
64468;DHT22;50853;46.836;16.820;2024-03-02T03:57:37;10.50;91.50
64468;DHT22;50853;46.836;16.820;2024-03-02T04:00:03;10.50;91.50
64468;DHT22;50853;46.836;16.820;2024-03-02T04:02:29;10.50;91.50
64468;DHT22;50853;46.836;16.820;2024-03-02T04:04:55;10.50;91.50
64468;DHT22;50853;46.836;16.820;2024-03-02T04:07:21;10.50;91.60
64468;DHT22;50853;46.836;16.820;2024-03-02T04:09:47;10.50;91.50
64468;DHT22;50853;46.836;16.820;2024-03-02T04:12:12;10.50;91.60
64468;DHT22;50853;46.836;16.820;2024-03-02T04:14:38;10.50;91.60
64468;DHT22;50853;46.836;16.820;2024-03-02T04:17:04;10.50;91.50
64468;DHT22;50853;46.836;16.820;2024-03-02T04:19:30;10.50;91.50
64468;DHT22;50853;46.836;16.820;2024-03-02T04:21:56;10.50;91.50
64468;DHT22;50853;46.836;16.820;2024-03-02T04:24:22;10.50;91.30
64468;DHT22;50853;46.836;16.820;2024-03-02T04:26:48;10.50;91.30
64468;DHT22;50853;46.836;16.820;2024-03-02T04:29:13;10.50;91.40
64468;DHT22;50853;46.836;16.820;2024-03-02T04:31:39;10.50;91.40
64468;DHT22;50853;46.836;16.820;2024-03-02T04:34:05;10.50;91.40
64468;DHT22;50853;46.836;16.820;2024-03-02T04:36:31;10.50;91.30
64468;DHT22;50853;46.836;16.820;2024-03-02T04:38:56;10.50;91.40
64468;DHT22;50853;46.836;16.820;2024-03-02T04:41:22;10.50;91.40
64468;DHT22;50853;46.836;16.820;2024-03-02T04:43:48;10.50;91.40
64468;DHT22;50853;46.836;16.820;2024-03-02T04:46:14;10.50;91.40
64468;DHT22;50853;46.836;16.820;2024-03-02T04:48:40;10.50;91.30
64468;DHT22;50853;46.836;16.820;2024-03-02T04:51:06;10.50;91.30
64468;DHT22;50853;46.836;16.820;2024-03-02T04:53:32;10.50;91.30
64468;DHT22;50853;46.836;16.820;2024-03-02T04:55:57;10.50;91.20
64468;DHT22;50853;46.836;16.820;2024-03-02T04:58:49;10.50;91.10
64468;DHT22;50853;46.836;16.820;2024-03-02T05:01:15;10.50;91.20
64468;DHT22;50853;46.836;16.820;2024-03-02T05:03:42;10.50;91.20
64468;DHT22;50853;46.836;16.820;2024-03-02T05:06:08;10.50;91.20
64468;DHT22;50853;46.836;16.820;2024-03-02T05:08:34;10.50;91.20
64468;DHT22;50853;46.836;16.820;2024-03-02T05:11:00;10.50;91.20
64468;DHT22;50853;46.836;16.820;2024-03-02T05:13:45;10.50;91.10
64468;DHT22;50853;46.836;16.820;2024-03-02T05:16:12;10.50;91.10
64468;DHT22;50853;46.836;16.820;2024-03-02T05:18:38;10.50;91.20
64468;DHT22;50853;46.836;16.820;2024-03-02T05:21:04;10.50;91.10
64468;DHT22;50853;46.836;16.820;2024-03-02T05:23:29;10.50;91.10
64468;DHT22;50853;46.836;16.820;2024-03-02T05:25:59;10.50;91.20
64468;DHT22;50853;46.836;16.820;2024-03-02T05:28:25;10.50;91.20
64468;DHT22;50853;46.836;16.820;2024-03-02T05:30:51;10.50;91.20
64468;DHT22;50853;46.836;16.820;2024-03-02T05:33:17;10.50;91.20
64468;DHT22;50853;46.836;16.820;2024-03-02T05:35:44;10.50;91.20
64468;DHT22;50853;46.836;16.820;2024-03-02T05:38:10;10.50;91.20
64468;DHT22;50853;46.836;16.820;2024-03-02T05:40:38;10.50;91.20
64468;DHT22;50853;46.836;16.820;2024-03-02T05:43:04;10.50;91.20
64468;DHT22;50853;46.836;16.820;2024-03-02T05:45:30;10.50;91.20
64468;DHT22;50853;46.836;16.820;2024-03-02T05:47:56;10.50;91.20
64468;DHT22;50853;46.836;16.820;2024-03-02T05:50:22;10.50;91.20
64468;DHT22;50853;46.836;16.820;2024-03-02T05:52:47;10.50;91.20
64468;DHT22;50853;46.836;16.820;2024-03-02T05:55:13;10.50;91.30
64468;DHT22;50853;46.836;16.820;2024-03-02T05:57:39;10.50;91.20
64468;DHT22;50853;46.836;16.820;2024-03-02T06:00:09;10.50;91.20
64468;DHT22;50853;46.836;16.820;2024-03-02T06:02:35;10.50;91.20
64468;DHT22;50853;46.836;16.820;2024-03-02T06:05:00;10.50;91.30
64468;DHT22;50853;46.836;16.820;2024-03-02T06:07:26;10.50;91.30
64468;DHT22;50853;46.836;16.820;2024-03-02T06:09:52;10.50;91.30
64468;DHT22;50853;46.836;16.820;2024-03-02T06:12:18;10.40;91.20
64468;DHT22;50853;46.836;16.820;2024-03-02T06:14:44;10.50;91.20
64468;DHT22;50853;46.836;16.820;2024-03-02T06:17:10;10.50;91.30
64468;DHT22;50853;46.836;16.820;2024-03-02T06:19:36;10.50;91.30
64468;DHT22;50853;46.836;16.820;2024-03-02T06:22:02;10.50;91.20
64468;DHT22;50853;46.836;16.820;2024-03-02T06:24:27;10.50;91.20
64468;DHT22;50853;46.836;16.820;2024-03-02T06:26:53;10.50;91.20
64468;DHT22;50853;46.836;16.820;2024-03-02T06:29:19;10.50;91.20
64468;DHT22;50853;46.836;16.820;2024-03-02T06:31:45;10.40;91.20
64468;DHT22;50853;46.836;16.820;2024-03-02T06:34:10;10.40;91.20
64468;DHT22;50853;46.836;16.820;2024-03-02T06:36:36;10.50;91.20
64468;DHT22;50853;46.836;16.820;2024-03-02T06:39:02;10.50;91.20
64468;DHT22;50853;46.836;16.820;2024-03-02T06:41:28;10.50;91.20
64468;DHT22;50853;46.836;16.820;2024-03-02T06:43:53;10.40;91.30
64468;DHT22;50853;46.836;16.820;2024-03-02T06:46:25;10.50;91.20
64468;DHT22;50853;46.836;16.820;2024-03-02T06:48:51;10.40;91.20
64468;DHT22;50853;46.836;16.820;2024-03-02T06:51:17;10.50;91.30
64468;DHT22;50853;46.836;16.820;2024-03-02T06:53:42;10.40;91.20
64468;DHT22;50853;46.836;16.820;2024-03-02T06:56:08;10.40;91.30
64468;DHT22;50853;46.836;16.820;2024-03-02T06:58:34;10.40;91.30
64468;DHT22;50853;46.836;16.820;2024-03-02T07:01:00;10.40;91.30
64468;DHT22;50853;46.836;16.820;2024-03-02T07:03:26;10.40;91.30
64468;DHT22;50853;46.836;16.820;2024-03-02T07:05:52;10.40;91.40
64468;DHT22;50853;46.836;16.820;2024-03-02T07:08:17;10.40;91.30
64468;DHT22;50853;46.836;16.820;2024-03-02T07:10:43;10.40;91.30
64468;DHT22;50853;46.836;16.820;2024-03-02T07:13:09;10.40;91.30
64468;DHT22;50853;46.836;16.820;2024-03-02T07:15:35;10.40;91.30
64468;DHT22;50853;46.836;16.820;2024-03-02T07:18:19;10.40;91.30
64468;DHT22;50853;46.836;16.820;2024-03-02T07:20:44;10.40;91.30
64468;DHT22;50853;46.836;16.820;2024-03-02T07:23:10;10.40;91.30
64468;DHT22;50853;46.836;16.820;2024-03-02T07:25:36;10.40;91.40
64468;DHT22;50853;46.836;16.820;2024-03-02T07:28:02;10.40;91.40
64468;DHT22;50853;46.836;16.820;2024-03-02T07:30:29;10.40;91.40
64468;DHT22;50853;46.836;16.820;2024-03-02T07:32:55;10.40;91.30
64468;DHT22;50853;46.836;16.820;2024-03-02T07:35:21;10.40;91.30
64468;DHT22;50853;46.836;16.820;2024-03-02T07:37:47;10.40;91.30
64468;DHT22;50853;46.836;16.820;2024-03-02T07:40:14;10.40;91.20
64468;DHT22;50853;46.836;16.820;2024-03-02T07:42:40;10.40;91.20
64468;DHT22;50853;46.836;16.820;2024-03-02T07:45:07;10.40;91.20
64468;DHT22;50853;46.836;16.820;2024-03-02T07:47:36;10.40;91.30
64468;DHT22;50853;46.836;16.820;2024-03-02T07:50:02;10.40;91.30
64468;DHT22;50853;46.836;16.820;2024-03-02T07:52:28;10.40;91.30
64468;DHT22;50853;46.836;16.820;2024-03-02T07:54:54;10.40;91.20
64468;DHT22;50853;46.836;16.820;2024-03-02T07:57:21;10.40;91.20
64468;DHT22;50853;46.836;16.820;2024-03-02T07:59:46;10.40;91.20
64468;DHT22;50853;46.836;16.820;2024-03-02T08:02:13;10.40;91.10
64468;DHT22;50853;46.836;16.820;2024-03-02T08:04:38;10.40;91.10
64468;DHT22;50853;46.836;16.820;2024-03-02T08:07:04;10.40;91.10
64468;DHT22;50853;46.836;16.820;2024-03-02T08:09:30;10.40;91.00
64468;DHT22;50853;46.836;16.820;2024-03-02T08:11:56;10.40;91.20
64468;DHT22;50853;46.836;16.820;2024-03-02T08:14:24;10.40;91.30
64468;DHT22;50853;46.836;16.820;2024-03-02T08:16:50;10.40;91.00
64468;DHT22;50853;46.836;16.820;2024-03-02T08:19:16;10.40;91.20
64468;DHT22;50853;46.836;16.820;2024-03-02T08:21:43;10.40;91.20
64468;DHT22;50853;46.836;16.820;2024-03-02T08:24:09;10.40;91.30
64468;DHT22;50853;46.836;16.820;2024-03-02T08:26:35;10.40;91.30
64468;DHT22;50853;46.836;16.820;2024-03-02T08:29:01;10.40;91.40
64468;DHT22;50853;46.836;16.820;2024-03-02T08:31:29;10.40;91.40
64468;DHT22;50853;46.836;16.820;2024-03-02T08:33:55;10.40;91.20
64468;DHT22;50853;46.836;16.820;2024-03-02T08:36:23;10.40;91.30
64468;DHT22;50853;46.836;16.820;2024-03-02T08:38:52;10.40;91.20
64468;DHT22;50853;46.836;16.820;2024-03-02T08:41:18;10.40;91.30
64468;DHT22;50853;46.836;16.820;2024-03-02T08:43:44;10.40;91.40
64468;DHT22;50853;46.836;16.820;2024-03-02T08:46:10;10.40;91.30
64468;DHT22;50853;46.836;16.820;2024-03-02T08:48:35;10.40;91.30
64468;DHT22;50853;46.836;16.820;2024-03-02T08:51:01;10.40;91.40
64468;DHT22;50853;46.836;16.820;2024-03-02T08:53:30;10.40;91.50
64468;DHT22;50853;46.836;16.820;2024-03-02T08:55:56;10.40;91.50
64468;DHT22;50853;46.836;16.820;2024-03-02T08:58:22;10.40;91.40
64468;DHT22;50853;46.836;16.820;2024-03-02T09:00:47;10.40;91.40
64468;DHT22;50853;46.836;16.820;2024-03-02T09:03:13;10.40;91.50
64468;DHT22;50853;46.836;16.820;2024-03-02T09:17:47;10.50;91.10
64468;DHT22;50853;46.836;16.820;2024-03-02T09:20:13;10.50;91.20
64468;DHT22;50853;46.836;16.820;2024-03-02T09:22:39;10.50;91.20
64468;DHT22;50853;46.836;16.820;2024-03-02T09:25:05;10.50;91.30
64468;DHT22;50853;46.836;16.820;2024-03-02T09:30:08;10.50;91.20
64468;DHT22;50853;46.836;16.820;2024-03-02T09:32:36;10.50;91.20
64468;DHT22;50853;46.836;16.820;2024-03-02T09:35:02;10.50;91.30
64468;DHT22;50853;46.836;16.820;2024-03-02T09:37:27;10.50;91.40
64468;DHT22;50853;46.836;16.820;2024-03-02T09:39:54;10.50;91.50
64468;DHT22;50853;46.836;16.820;2024-03-02T09:42:20;10.50;91.60
64468;DHT22;50853;46.836;16.820;2024-03-02T09:44:47;10.50;91.70
64468;DHT22;50853;46.836;16.820;2024-03-02T09:47:13;10.50;91.70
64468;DHT22;50853;46.836;16.820;2024-03-02T09:49:40;10.50;91.80
64468;DHT22;50853;46.836;16.820;2024-03-02T09:52:07;10.50;91.70
64468;DHT22;50853;46.836;16.820;2024-03-02T09:54:33;10.50;91.90
64468;DHT22;50853;46.836;16.820;2024-03-02T09:56:59;10.50;92.00
64468;DHT22;50853;46.836;16.820;2024-03-02T09:59:27;10.50;92.10
64468;DHT22;50853;46.836;16.820;2024-03-02T10:02:07;10.50;92.30
64468;DHT22;50853;46.836;16.820;2024-03-02T10:04:33;10.50;92.30
64468;DHT22;50853;46.836;16.820;2024-03-02T10:07:15;10.50;92.20
64468;DHT22;50853;46.836;16.820;2024-03-02T10:09:42;10.50;92.20
64468;DHT22;50853;46.836;16.820;2024-03-02T10:12:09;10.50;92.20
64468;DHT22;50853;46.836;16.820;2024-03-02T10:14:37;10.50;92.30
64468;DHT22;50853;46.836;16.820;2024-03-02T10:17:11;10.50;92.20
64468;DHT22;50853;46.836;16.820;2024-03-02T10:19:37;10.50;92.20
64468;DHT22;50853;46.836;16.820;2024-03-02T10:22:05;10.50;92.20
64468;DHT22;50853;46.836;16.820;2024-03-02T10:27:16;10.50;92.20
64468;DHT22;50853;46.836;16.820;2024-03-02T10:29:42;10.50;92.20
64468;DHT22;50853;46.836;16.820;2024-03-02T10:32:11;10.50;92.20
64468;DHT22;50853;46.836;16.820;2024-03-02T10:34:39;10.60;92.10
64468;DHT22;50853;46.836;16.820;2024-03-02T10:37:06;10.50;92.20
64468;DHT22;50853;46.836;16.820;2024-03-02T10:39:35;10.50;92.20
64468;DHT22;50853;46.836;16.820;2024-03-02T10:42:02;10.50;92.20
64468;DHT22;50853;46.836;16.820;2024-03-02T10:44:30;10.60;94.20
64468;DHT22;50853;46.836;16.820;2024-03-02T10:46:58;10.70;91.90
64468;DHT22;50853;46.836;16.820;2024-03-02T10:49:26;10.70;90.80
64468;DHT22;50853;46.836;16.820;2024-03-02T10:51:53;10.80;91.40
64468;DHT22;50853;46.836;16.820;2024-03-02T10:54:19;10.80;92.60
64468;DHT22;50853;46.836;16.820;2024-03-02T10:56:53;10.90;93.00
64468;DHT22;50853;46.836;16.820;2024-03-02T11:01:48;10.90;92.50
64468;DHT22;50853;46.836;16.820;2024-03-02T11:04:17;10.90;92.50
64468;DHT22;50853;46.836;16.820;2024-03-02T11:06:48;10.90;92.00
64468;DHT22;50853;46.836;16.820;2024-03-02T11:09:22;10.90;92.30
64468;DHT22;50853;46.836;16.820;2024-03-02T11:14:41;10.90;91.70
64468;DHT22;50853;46.836;16.820;2024-03-02T11:17:09;11.00;92.20
64468;DHT22;50853;46.836;16.820;2024-03-02T11:19:37;11.10;93.30
64468;DHT22;50853;46.836;16.820;2024-03-02T11:22:03;11.10;93.10
64468;DHT22;50853;46.836;16.820;2024-03-02T11:24:31;11.20;93.00
64468;DHT22;50853;46.836;16.820;2024-03-02T11:27:04;11.20;92.00
64468;DHT22;50853;46.836;16.820;2024-03-02T11:32:03;11.20;92.40
64468;DHT22;50853;46.836;16.820;2024-03-02T11:34:34;11.20;92.60
64468;DHT22;50853;46.836;16.820;2024-03-02T11:37:03;11.30;92.50
64468;DHT22;50853;46.836;16.820;2024-03-02T11:39:30;11.40;93.70
64468;DHT22;50853;46.836;16.820;2024-03-02T11:41:57;11.40;94.10
64468;DHT22;50853;46.836;16.820;2024-03-02T11:44:29;11.50;94.50
64468;DHT22;50853;46.836;16.820;2024-03-02T11:46:59;11.50;94.60
64468;DHT22;50853;46.836;16.820;2024-03-02T11:49:42;11.50;94.30
64468;DHT22;50853;46.836;16.820;2024-03-02T11:52:10;11.50;94.10
64468;DHT22;50853;46.836;16.820;2024-03-02T11:54:38;11.50;93.30
64468;DHT22;50853;46.836;16.820;2024-03-02T11:57:13;11.60;93.20
64468;DHT22;50853;46.836;16.820;2024-03-02T11:59:40;11.60;91.10
64468;DHT22;50853;46.836;16.820;2024-03-02T12:02:06;11.60;92.00
64468;DHT22;50853;46.836;16.820;2024-03-02T12:04:32;11.60;92.10
64468;DHT22;50853;46.836;16.820;2024-03-02T12:07:00;11.70;92.10
64468;DHT22;50853;46.836;16.820;2024-03-02T12:09:28;11.70;91.70
64468;DHT22;50853;46.836;16.820;2024-03-02T12:12:10;11.70;92.10
64468;DHT22;50853;46.836;16.820;2024-03-02T12:14:38;11.70;92.00
64468;DHT22;50853;46.836;16.820;2024-03-02T12:17:05;11.70;92.30
64468;DHT22;50853;46.836;16.820;2024-03-02T12:19:31;11.70;92.00
64468;DHT22;50853;46.836;16.820;2024-03-02T12:21:58;11.80;92.10
64468;DHT22;50853;46.836;16.820;2024-03-02T12:24:26;11.80;92.30
64468;DHT22;50853;46.836;16.820;2024-03-02T12:26:52;11.90;92.20
64468;DHT22;50853;46.836;16.820;2024-03-02T12:29:20;11.90;92.50
64468;DHT22;50853;46.836;16.820;2024-03-02T12:31:48;12.00;91.80
64468;DHT22;50853;46.836;16.820;2024-03-02T12:34:15;12.00;91.70
64468;DHT22;50853;46.836;16.820;2024-03-02T12:36:41;12.00;91.80
64468;DHT22;50853;46.836;16.820;2024-03-02T12:39:10;12.00;92.10
64468;DHT22;50853;46.836;16.820;2024-03-02T12:41:37;12.10;89.70
64468;DHT22;50853;46.836;16.820;2024-03-02T12:44:04;12.00;88.00
64468;DHT22;50853;46.836;16.820;2024-03-02T12:46:30;12.00;87.90
64468;DHT22;50853;46.836;16.820;2024-03-02T12:48:56;12.00;88.70
64468;DHT22;50853;46.836;16.820;2024-03-02T12:51:22;12.10;88.40
64468;DHT22;50853;46.836;16.820;2024-03-02T12:54:00;12.10;89.10
64468;DHT22;50853;46.836;16.820;2024-03-02T12:56:26;12.10;90.40
64468;DHT22;50853;46.836;16.820;2024-03-02T12:58:55;12.20;89.70
64468;DHT22;50853;46.836;16.820;2024-03-02T13:01:21;12.30;90.00
64468;DHT22;50853;46.836;16.820;2024-03-02T13:03:51;12.30;90.20
64468;DHT22;50853;46.836;16.820;2024-03-02T13:06:17;12.40;90.20
64468;DHT22;50853;46.836;16.820;2024-03-02T13:08:45;12.40;89.60
64468;DHT22;50853;46.836;16.820;2024-03-02T13:11:11;12.40;90.00
64468;DHT22;50853;46.836;16.820;2024-03-02T13:13:37;12.40;89.80
64468;DHT22;50853;46.836;16.820;2024-03-02T13:16:10;12.40;88.70
64468;DHT22;50853;46.836;16.820;2024-03-02T13:18:38;12.40;89.80
64468;DHT22;50853;46.836;16.820;2024-03-02T13:21:04;12.40;89.40
64468;DHT22;50853;46.836;16.820;2024-03-02T13:23:29;12.40;88.00
64468;DHT22;50853;46.836;16.820;2024-03-02T13:25:59;12.40;88.20
64468;DHT22;50853;46.836;16.820;2024-03-02T13:28:25;12.50;89.50
64468;DHT22;50853;46.836;16.820;2024-03-02T13:30:51;12.50;89.10
64468;DHT22;50853;46.836;16.820;2024-03-02T13:33:17;12.50;87.50
64468;DHT22;50853;46.836;16.820;2024-03-02T13:35:51;12.60;87.10
64468;DHT22;50853;46.836;16.820;2024-03-02T13:38:20;12.60;88.10
64468;DHT22;50853;46.836;16.820;2024-03-02T13:40:48;12.70;88.70
64468;DHT22;50853;46.836;16.820;2024-03-02T13:43:17;12.80;87.40
64468;DHT22;50853;46.836;16.820;2024-03-02T13:45:43;12.70;88.70
64468;DHT22;50853;46.836;16.820;2024-03-02T13:48:09;12.60;89.00
64468;DHT22;50853;46.836;16.820;2024-03-02T13:50:35;12.60;89.50
64468;DHT22;50853;46.836;16.820;2024-03-02T13:53:01;12.50;89.90
64468;DHT22;50853;46.836;16.820;2024-03-02T13:55:27;12.40;90.10
64468;DHT22;50853;46.836;16.820;2024-03-02T13:57:52;12.40;90.20
64468;DHT22;50853;46.836;16.820;2024-03-02T14:00:18;12.40;90.20
64468;DHT22;50853;46.836;16.820;2024-03-02T14:02:45;12.40;90.20
64468;DHT22;50853;46.836;16.820;2024-03-02T14:05:11;12.30;90.20
64468;DHT22;50853;46.836;16.820;2024-03-02T14:07:38;12.30;90.30
64468;DHT22;50853;46.836;16.820;2024-03-02T14:10:04;12.30;90.40
64468;DHT22;50853;46.836;16.820;2024-03-02T14:12:30;12.20;90.40
64468;DHT22;50853;46.836;16.820;2024-03-02T14:14:56;12.30;90.40
64468;DHT22;50853;46.836;16.820;2024-03-02T14:17:25;12.20;90.40
64468;DHT22;50853;46.836;16.820;2024-03-02T14:19:50;12.20;90.40
64468;DHT22;50853;46.836;16.820;2024-03-02T14:22:21;12.20;90.50
64468;DHT22;50853;46.836;16.820;2024-03-02T14:24:47;12.20;90.50
64468;DHT22;50853;46.836;16.820;2024-03-02T14:27:14;12.20;90.60
64468;DHT22;50853;46.836;16.820;2024-03-02T14:29:42;12.10;90.60
64468;DHT22;50853;46.836;16.820;2024-03-02T14:32:08;12.10;90.60
64468;DHT22;50853;46.836;16.820;2024-03-02T14:34:34;12.10;90.60
64468;DHT22;50853;46.836;16.820;2024-03-02T14:37:00;12.10;90.60
64468;DHT22;50853;46.836;16.820;2024-03-02T14:39:26;12.10;90.60
64468;DHT22;50853;46.836;16.820;2024-03-02T14:41:52;12.10;90.60
64468;DHT22;50853;46.836;16.820;2024-03-02T14:44:18;12.10;90.60
64468;DHT22;50853;46.836;16.820;2024-03-02T14:46:47;12.10;90.60
64468;DHT22;50853;46.836;16.820;2024-03-02T14:49:13;12.00;90.40
64468;DHT22;50853;46.836;16.820;2024-03-02T14:51:39;12.00;90.60
64468;DHT22;50853;46.836;16.820;2024-03-02T14:54:05;12.00;90.60
64468;DHT22;50853;46.836;16.820;2024-03-02T14:56:31;12.00;90.60
64468;DHT22;50853;46.836;16.820;2024-03-02T14:58:57;12.00;90.70
64468;DHT22;50853;46.836;16.820;2024-03-02T15:01:22;12.00;90.80
64468;DHT22;50853;46.836;16.820;2024-03-02T15:03:50;12.00;90.70
64468;DHT22;50853;46.836;16.820;2024-03-02T15:06:16;12.00;90.80
64468;DHT22;50853;46.836;16.820;2024-03-02T15:08:42;12.00;90.80
64468;DHT22;50853;46.836;16.820;2024-03-02T15:11:08;12.00;90.80
64468;DHT22;50853;46.836;16.820;2024-03-02T15:13:34;11.90;90.80
64468;DHT22;50853;46.836;16.820;2024-03-02T15:16:00;11.90;90.70
64468;DHT22;50853;46.836;16.820;2024-03-02T15:18:26;11.90;90.80
64468;DHT22;50853;46.836;16.820;2024-03-02T15:20:53;11.90;90.70
64468;DHT22;50853;46.836;16.820;2024-03-02T15:23:18;11.90;90.70
64468;DHT22;50853;46.836;16.820;2024-03-02T15:25:44;11.90;90.80
64468;DHT22;50853;46.836;16.820;2024-03-02T15:28:10;11.90;90.70
64468;DHT22;50853;46.836;16.820;2024-03-02T15:30:36;11.90;90.80
64468;DHT22;50853;46.836;16.820;2024-03-02T15:33:02;11.90;90.90
64468;DHT22;50853;46.836;16.820;2024-03-02T15:35:28;11.90;90.90
64468;DHT22;50853;46.836;16.820;2024-03-02T15:37:54;11.80;90.90
64468;DHT22;50853;46.836;16.820;2024-03-02T15:40:19;11.80;90.90
64468;DHT22;50853;46.836;16.820;2024-03-02T15:42:45;11.80;90.90